Time;durP1;ratioP1;P1;durP2;ratioP2;P2;SDS_P1;SDS_P2;PMS_P1;PMS_P2;Temp;Humidity;BMP_temperature;BMP_pressure;BME280_temperature;BME280_humidity;BME280_pressure;Samples;Min_cycle;Max_cycle;Signal;HPM_P1;HPM_P2
2022/06/12 00:01:17;;;;;;;0.50;0.50;;;;;;;17.08;71.88;96098.94;4345425;32;20208;-61
2022/06/12 00:03:43;;;;;;;1.33;0.90;;;;;;;17.02;72.43;96100.22;4358751;32;20201;-60
2022/06/12 00:06:22;;;;;;;0.63;0.63;;;;;;;16.99;72.91;96098.16;4363497;32;20203;-60
2022/06/12 00:08:48;;;;;;;0.93;0.83;;;;;;;16.90;72.96;96096.56;4347105;32;20196;-60
2022/06/12 00:11:19;;;;;;;0.90;0.90;;;;;;;16.90;73.58;96097.34;4375476;32;20192;-61
2022/06/12 00:13:51;;;;;;;0.90;0.90;;;;;;;16.82;73.60;96100.84;4348761;32;20208;-61
2022/06/12 00:16:18;;;;;;;0.77;0.77;;;;;;;16.77;74.57;96092.94;4346105;32;20204;-61
2022/06/12 00:18:43;;;;;;;0.70;0.70;;;;;;;16.76;74.61;96094.03;4345044;32;20224;-61
2022/06/12 00:21:19;;;;;;;0.60;0.60;;;;;;;16.71;74.56;96094.97;4361519;32;20189;-63
2022/06/12 00:24:00;;;;;;;0.50;0.50;;;;;;;16.78;74.29;96092.63;4372846;32;20286;-61
2022/06/12 00:26:32;;;;;;;0.93;0.93;;;;;;;16.70;74.85;96093.38;4347709;32;20207;-61
2022/06/12 00:29:08;;;;;;;0.97;0.97;;;;;;;16.69;75.10;96094.50;4347628;32;20181;-61
2022/06/12 00:31:38;;;;;;;0.37;0.37;;;;;;;16.64;74.84;96094.62;4350855;32;20193;-61
2022/06/12 00:34:05;;;;;;;0.33;0.33;;;;;;;16.58;75.21;96095.88;4346701;32;20192;-61
2022/06/12 00:36:31;;;;;;;0.60;0.60;;;;;;;16.66;75.07;96091.66;4367436;32;20275;-61
2022/06/12 00:38:57;;;;;;;4.47;0.83;;;;;;;16.58;75.52;96090.50;4347680;32;20260;-61
2022/06/12 00:41:22;;;;;;;0.70;0.70;;;;;;;16.47;76.07;96097.25;4347568;32;20197;-61
2022/06/12 00:43:47;;;;;;;0.37;0.37;;;;;;;16.52;75.43;96091.75;4347256;32;20265;-61
2022/06/12 00:46:46;;;;;;;0.70;0.70;;;;;;;16.52;75.81;96085.59;4358858;32;20192;-61
2022/06/12 00:49:26;;;;;;;0.80;0.80;;;;;;;16.54;75.82;96094.91;4348954;32;20197;-62
2022/06/12 00:51:59;;;;;;;0.60;0.60;;;;;;;16.55;75.76;96095.69;4347759;32;20213;-61
2022/06/12 00:54:25;;;;;;;0.57;0.57;;;;;;;16.53;75.38;96098.69;4360719;32;20193;-61
2022/06/12 00:56:54;;;;;;;0.67;0.67;;;;;;;16.58;75.00;96090.50;4358803;32;20207;-61
2022/06/12 00:59:27;;;;;;;0.40;0.40;;;;;;;16.53;75.49;96087.19;4346920;32;20216;-61
2022/06/12 01:01:54;;;;;;;1.43;0.93;;;;;;;16.46;75.75;96088.41;4360421;32;20197;-61
2022/06/12 01:07:12;;;;;;;4.27;0.77;;;;;;;16.26;76.98;96083.63;4344746;32;20212;-61
2022/06/12 01:09:44;;;;;;;0.77;0.77;;;;;;;16.30;77.02;96081.13;4347581;32;20197;-61
2022/06/12 01:12:16;;;;;;;1.47;1.40;;;;;;;16.37;76.63;96078.81;4365842;32;20204;-62
2022/06/12 01:14:53;;;;;;;0.70;0.70;;;;;;;16.33;76.29;96080.50;4346468;32;20196;-61
2022/06/12 01:17:22;;;;;;;0.53;0.53;;;;;;;16.50;75.63;96083.22;4346919;32;20230;-61
2022/06/12 01:19:59;;;;;;;0.77;0.77;;;;;;;16.49;75.78;96082.44;4360679;32;20241;-61
2022/06/12 01:22:37;;;;;;;0.50;0.50;;;;;;;16.37;76.61;96076.91;4360531;32;20209;-61
2022/06/12 01:25:34;;;;;;;0.77;0.77;;;;;;;16.36;76.64;96083.37;4346762;32;20189;-61
2022/06/12 01:28:12;;;;;;;0.50;0.50;;;;;;;16.40;76.40;96081.66;4358283;32;20264;-61
2022/06/12 01:31:00;;;;;;;0.87;0.87;;;;;;;16.24;77.31;96068.97;4360236;32;20241;-61
2022/06/12 01:33:35;;;;;;;2.23;1.40;;;;;;;16.25;77.36;96071.34;4350906;32;20212;-61
2022/06/12 01:36:23;;;;;;;0.47;0.47;;;;;;;16.26;77.67;96072.12;4343923;32;20283;-61
2022/06/12 01:39:12;;;;;;;0.50;0.50;;;;;;;16.18;77.34;96071.03;4346096;32;20222;-61
2022/06/12 01:41:59;;;;;;;0.80;0.80;;;;;;;16.22;77.45;96069.28;4359373;32;20181;-61
2022/06/12 01:44:48;;;;;;;0.30;0.30;;;;;;;16.20;78.04;96066.16;4345875;32;20202;-61
2022/06/12 01:47:22;;;;;;;0.60;0.60;;;;;;;16.28;77.18;96073.41;4351129;32;20201;-61
2022/06/12 01:50:13;;;;;;;3.47;0.90;;;;;;;16.26;77.21;96077.50;4359638;32;20189;-62
2022/06/12 01:52:45;;;;;;;0.50;0.50;;;;;;;16.22;77.07;96066.59;4345633;32;20250;-64
2022/06/12 01:55:29;;;;;;;0.43;0.43;;;;;;;16.20;77.43;96068.03;4356776;32;20286;-63
2022/06/12 01:57:58;;;;;;;0.83;0.83;;;;;;;16.17;77.76;96066.78;4358778;32;20200;-61
2022/06/12 02:00:27;;;;;;;0.80;0.80;;;;;;;16.08;78.17;96065.94;4371518;32;20188;-61
2022/06/12 02:03:30;;;;;;;1.03;0.83;;;;;;;16.02;78.60;96059.13;4359993;32;20204;-61
2022/06/12 02:06:19;;;;;;;3.80;1.37;;;;;;;16.03;78.61;96060.72;4359657;32;20200;-61
2022/06/12 02:08:56;;;;;;;0.73;0.73;;;;;;;15.99;78.67;96059.78;4353571;32;20185;-62
2022/06/12 02:14:30;;;;;;;0.63;0.63;;;;;;;15.90;79.07;96050.91;4359666;32;20215;-61
2022/06/12 02:17:04;;;;;;;0.50;0.50;;;;;;;15.92;78.93;96051.41;4345698;32;20232;-61
2022/06/12 02:19:38;;;;;;;0.30;0.30;;;;;;;15.91;78.98;96055.16;4345696;32;20272;-61
2022/06/12 02:22:17;;;;;;;0.90;0.90;;;;;;;15.76;79.51;96051.81;4359601;32;20263;-61
2022/06/12 02:24:48;;;;;;;0.93;0.93;;;;;;;15.84;79.20;96052.13;4344397;32;20185;-62
2022/06/12 02:27:45;;;;;;;0.60;0.60;;;;;;;15.87;79.01;96049.62;4371500;32;20200;-61
2022/06/12 02:30:17;;;;;;;0.70;0.70;;;;;;;16.05;78.19;96055.84;4354140;32;20232;-62
2022/06/12 02:33:09;;;;;;;0.40;0.40;;;;;;;15.87;79.01;96043.50;4358077;32;20252;-62
2022/06/12 02:35:46;;;;;;;0.70;0.70;;;;;;;15.86;78.84;96044.59;4337988;32;20185;-61
2022/06/12 02:38:18;;;;;;;0.40;0.40;;;;;;;15.89;78.67;96046.66;4355715;32;20201;-62
2022/06/12 02:40:51;;;;;;;0.80;0.80;;;;;;;15.86;78.64;96045.37;4359589;32;20204;-61
2022/06/12 02:43:21;;;;;;;0.70;0.70;;;;;;;15.87;78.81;96044.28;4345778;32;20188;-61
2022/06/12 02:45:53;;;;;;;0.60;0.60;;;;;;;15.96;78.24;96047.00;4359474;32;20193;-61
2022/06/12 02:48:20;;;;;;;0.63;0.63;;;;;;;15.85;78.83;96045.69;4355029;32;20204;-61
2022/06/12 02:51:23;;;;;;;1.17;1.07;;;;;;;15.82;78.92;96047.88;4363561;32;20307;-62
2022/06/12 02:53:49;;;;;;;0.83;0.83;;;;;;;15.74;79.43;96043.31;4358876;32;20207;-61
2022/06/12 02:56:17;;;;;;;0.53;0.53;;;;;;;15.84;78.55;96044.91;4360793;32;20185;-61
2022/06/12 02:59:07;;;;;;;0.93;0.80;;;;;;;15.91;78.42;96044.47;4353117;32;20238;-61
2022/06/12 03:01:42;;;;;;;1.10;1.07;;;;;;;15.85;78.94;96045.69;4359078;32;20261;-61
2022/06/12 03:04:49;;;;;;;0.53;0.53;;;;;;;15.84;78.27;96041.44;4345545;32;20192;-61
2022/06/12 03:07:15;;;;;;;0.90;0.90;;;;;;;15.82;78.23;96045.22;4298734;33;20213;-61
2022/06/12 03:09:41;;;;;;;0.60;0.60;;;;;;;15.77;78.35;96044.56;4316906;32;20292;-62
2022/06/12 03:12:07;;;;;;;0.80;0.80;;;;;;;15.89;77.97;96049.34;4359935;32;20263;-59
2022/06/12 03:14:33;;;;;;;0.70;0.70;;;;;;;15.98;77.42;96056.31;4348260;32;20252;-59
2022/06/12 03:16:59;;;;;;;0.50;0.50;;;;;;;15.88;77.91;96051.22;4347305;32;20324;-60
2022/06/12 03:19:29;;;;;;;0.90;0.90;;;;;;;15.94;77.87;96055.34;4361014;32;20204;-61
2022/06/12 03:22:14;;;;;;;0.67;0.67;;;;;;;15.95;77.73;96056.12;4345841;32;20225;-61
2022/06/12 03:24:58;;;;;;;0.63;0.63;;;;;;;15.90;77.98;96058.94;4338561;32;20189;-61
2022/06/12 03:28:07;;;;;;;0.60;0.60;;;;;;;15.91;78.27;96057.84;4347055;32;20260;-61
2022/06/12 03:30:44;;;;;;;0.90;0.90;;;;;;;15.79;78.57;96059.19;4359145;32;20211;-61
2022/06/12 03:33:27;;;;;;;0.70;0.70;;;;;;;15.76;79.11;96059.84;4327978;32;20225;-64
2022/06/12 03:36:23;;;;;;;1.10;0.80;;;;;;;15.70;79.03;96054.91;4345806;32;20260;-61
2022/06/12 03:39:14;;;;;;;0.50;0.50;;;;;;;15.66;78.88;96060.09;4357925;32;20208;-61
2022/06/12 03:41:56;;;;;;;0.80;0.80;;;;;;;15.65;79.26;96063.06;4343478;32;20246;-62
2022/06/12 03:44:56;;;;;;;1.03;1.03;;;;;;;15.67;79.26;96064.34;4358449;32;20260;-61
2022/06/12 03:47:58;;;;;;;0.63;0.63;;;;;;;15.64;79.48;96072.19;4357880;32;20248;-61
2022/06/12 03:50:38;;;;;;;0.40;0.40;;;;;;;15.76;78.47;96067.87;4285214;33;20193;-62
2022/06/12 03:53:22;;;;;;;0.53;0.53;;;;;;;15.81;78.03;96070.38;4296051;33;20205;-61
2022/06/12 03:58:57;;;;;;;0.70;0.70;;;;;;;15.85;78.34;96075.13;4302217;33;20247;-62
2022/06/12 04:01:26;;;;;;;1.30;1.20;;;;;;;15.79;78.42;96085.19;4301972;33;20257;-62
2022/06/12 04:03:54;;;;;;;0.97;0.97;;;;;;;15.85;78.50;96078.59;4285116;32;20288;-61
2022/06/12 04:06:26;;;;;;;0.50;0.50;;;;;;;15.90;78.01;96075.78;4358255;32;20200;-62
2022/06/12 04:09:01;;;;;;;0.63;0.63;;;;;;;15.97;77.94;96070.00;4349809;32;20261;-62
2022/06/12 04:11:29;;;;;;;0.43;0.43;;;;;;;15.98;78.01;96074.25;4344760;32;20234;-62
2022/06/12 04:13:59;;;;;;;0.60;0.60;;;;;;;15.99;78.14;96073.16;4344276;32;20177;-62
2022/06/12 04:16:35;;;;;;;0.90;0.90;;;;;;;16.05;78.24;96074.59;4358250;32;20242;-62
2022/06/12 04:19:05;;;;;;;0.10;0.10;;;;;;;16.03;78.06;96074.09;4358476;32;20275;-62
2022/06/12 04:22:00;;;;;;;0.60;0.60;;;;;;;16.08;77.60;96076.66;4370840;32;20343;-62
2022/06/12 04:24:35;;;;;;;1.10;1.10;;;;;;;16.12;77.52;96078.41;4338354;32;20224;-62
2022/06/12 04:27:12;;;;;;;1.00;1.00;;;;;;;16.08;78.07;96079.31;4344860;32;20264;-62
2022/06/12 04:29:50;;;;;;;1.00;0.63;;;;;;;16.05;78.24;96079.94;4344549;32;20237;-62
2022/06/12 04:32:15;;;;;;;1.57;1.10;;;;;;;16.15;78.32;96082.34;4352030;32;20228;-62
2022/06/12 04:34:42;;;;;;;0.80;0.80;;;;;;;16.18;77.56;96075.59;4357685;32;20233;-62
2022/06/12 04:37:20;;;;;;;0.60;0.60;;;;;;;16.14;77.74;96070.84;4340500;33;20185;-62
2022/06/12 04:39:46;;;;;;;0.67;0.67;;;;;;;16.27;77.27;96071.81;4337902;32;20215;-62
2022/06/12 04:42:14;;;;;;;0.67;0.67;;;;;;;16.29;77.52;96077.66;4344230;32;20189;-62
2022/06/12 04:44:40;;;;;;;0.97;0.97;;;;;;;16.33;77.53;96067.91;4357171;32;20219;-62
2022/06/12 04:47:10;;;;;;;0.83;0.83;;;;;;;16.32;77.86;96066.34;4359417;32;20201;-62
2022/06/12 04:49:38;;;;;;;1.80;1.13;;;;;;;16.34;77.77;96069.50;4344901;32;20193;-61
2022/06/12 04:52:06;;;;;;;0.60;0.60;;;;;;;16.38;78.17;96067.78;4359942;32;20216;-62
2022/06/12 04:54:33;;;;;;;0.40;0.40;;;;;;;16.41;77.45;96064.47;4346872;32;20216;-62
2022/06/12 04:56:59;;;;;;;0.50;0.50;;;;;;;16.45;78.06;96068.09;4347465;32;20212;-62
2022/06/12 04:59:26;;;;;;;0.70;0.70;;;;;;;16.43;77.55;96067.59;4360230;32;20193;-62
2022/06/12 05:01:52;;;;;;;0.30;0.30;;;;;;;16.48;78.11;96062.13;4368056;32;20185;-62
2022/06/12 05:04:20;;;;;;;0.70;0.70;;;;;;;16.55;79.05;96060.87;4366121;32;20189;-62
2022/06/12 05:06:46;;;;;;;0.67;0.67;;;;;;;16.54;78.47;96061.97;4365057;32;20189;-62
2022/06/12 05:09:13;;;;;;;0.63;0.63;;;;;;;16.58;78.28;96062.94;4371094;32;20253;-62
2022/06/12 05:11:42;;;;;;;0.70;0.70;;;;;;;16.59;78.09;96064.50;4353463;32;20181;-62
2022/06/12 05:14:10;;;;;;;1.97;0.60;;;;;;;16.67;77.80;96056.50;4359188;32;20232;-62
2022/06/12 05:16:42;;;;;;;0.73;0.73;;;;;;;16.70;77.42;96055.09;4359375;32;20227;-62
2022/06/12 05:19:15;;;;;;;0.40;0.40;;;;;;;16.72;77.40;96051.00;4353088;32;20292;-62
2022/06/12 05:21:42;;;;;;;1.17;1.13;;;;;;;16.77;78.49;96061.56;4357492;32;20193;-62
2022/06/12 05:24:09;;;;;;;0.80;0.80;;;;;;;16.81;78.32;96051.81;4361850;32;20207;-62
2022/06/12 05:26:39;;;;;;;0.63;0.63;;;;;;;16.85;77.91;96057.28;4361029;32;20189;-62
2022/06/12 05:29:10;;;;;;;0.63;0.60;;;;;;;16.91;77.86;96055.25;4346293;32;20242;-62
2022/06/12 05:31:37;;;;;;;0.73;0.73;;;;;;;16.98;77.24;96055.59;4360266;32;20244;-62
2022/06/12 05:34:04;;;;;;;0.70;0.70;;;;;;;17.01;77.30;96055.75;4365501;32;20193;-62
2022/06/12 05:36:30;;;;;;;0.87;0.70;;;;;;;17.07;77.41;96053.66;4359943;32;20228;-62
2022/06/12 05:38:57;;;;;;;0.40;0.40;;;;;;;17.10;77.52;96050.38;4346276;32;20197;-62
2022/06/12 05:41:27;;;;;;;0.50;0.43;;;;;;;17.13;78.44;96053.22;4360222;32;20243;-62
2022/06/12 05:43:54;;;;;;;0.97;0.97;;;;;;;17.21;77.42;96057.00;4358907;32;20223;-62
2022/06/12 05:46:26;;;;;;;0.90;0.90;;;;;;;17.27;76.30;96042.31;4360048;32;20195;-62
2022/06/12 05:48:53;;;;;;;0.40;0.40;;;;;;;17.35;77.46;96054.13;4363982;32;20192;-62
2022/06/12 05:51:20;;;;;;;0.47;0.47;;;;;;;17.42;77.79;96054.44;4345829;32;20193;-61
2022/06/12 05:53:46;;;;;;;0.70;0.70;;;;;;;17.48;78.17;96059.31;4359952;32;20256;-62
2022/06/12 05:56:20;;;;;;;0.57;0.47;;;;;;;17.57;76.75;96061.97;4339056;32;20228;-62
2022/06/12 05:58:46;;;;;;;0.40;0.40;;;;;;;17.66;77.29;96062.00;4346048;32;20200;-62
2022/06/12 06:01:34;;;;;;;0.67;0.67;;;;;;;17.71;76.34;96061.81;4360115;32;20251;-62
2022/06/12 06:04:00;;;;;;;0.30;0.30;;;;;;;17.77;76.74;96060.53;4358278;32;20268;-62
2022/06/12 06:06:31;;;;;;;0.37;0.37;;;;;;;17.84;78.06;96056.25;4360006;32;20232;-62
2022/06/12 06:08:58;;;;;;;0.40;0.40;;;;;;;17.94;75.62;96059.69;4359704;32;20181;-62
2022/06/12 06:11:26;;;;;;;0.33;0.33;;;;;;;18.05;75.85;96052.87;4372280;32;20258;-62
2022/06/12 06:13:53;;;;;;;0.40;0.40;;;;;;;18.14;74.37;96053.59;4345552;32;20286;-62
2022/06/12 06:16:33;;;;;;;17.83;0.83;;;;;;;18.29;73.14;96054.97;4343769;32;20238;-62
2022/06/12 06:19:00;;;;;;;0.67;0.67;;;;;;;18.40;73.13;96059.63;4345237;32;20234;-62
2022/06/12 06:21:26;;;;;;;0.70;0.70;;;;;;;18.50;73.45;96055.78;4357331;32;20193;-62
2022/06/12 06:23:52;;;;;;;0.40;0.40;;;;;;;18.61;73.67;96064.28;4346157;32;20216;-62
2022/06/12 06:26:27;;;;;;;0.47;0.47;;;;;;;18.73;74.03;96062.47;4369002;32;20199;-62
2022/06/12 06:28:55;;;;;;;1.43;0.57;;;;;;;18.84;73.53;96066.34;4361589;32;20191;-62
2022/06/12 06:31:20;;;;;;;0.53;0.53;;;;;;;18.94;71.70;96057.09;4345794;32;20216;-62
2022/06/12 06:33:45;;;;;;;0.23;0.23;;;;;;;18.99;72.44;96056.91;4354886;32;20180;-62
2022/06/12 06:36:29;;;;;;;0.77;0.77;;;;;;;19.00;73.60;96060.37;4346369;32;20235;-62
2022/06/12 06:38:56;;;;;;;0.80;0.80;;;;;;;19.14;71.25;96064.34;4361269;32;20238;-62
2022/06/12 06:41:23;;;;;;;0.50;0.50;;;;;;;19.30;70.97;96067.25;4359840;32;20232;-62
2022/06/12 06:46:34;;;;;;;0.60;0.20;;;;;;;19.50;69.24;96065.66;4353814;32;20253;-62
2022/06/12 06:49:00;;;;;;;0.40;0.40;;;;;;;19.57;69.48;96065.91;4358664;32;20284;-62
2022/06/12 06:51:26;;;;;;;0.13;0.13;;;;;;;19.71;68.45;96058.31;4332373;32;20244;-62
2022/06/12 06:53:51;;;;;;;0.23;0.23;;;;;;;19.77;67.13;96072.34;4359293;32;20236;-62
2022/06/12 06:56:25;;;;;;;0.17;0.17;;;;;;;19.87;66.91;96064.62;4361229;32;20200;-62
2022/06/12 06:58:50;;;;;;;0.10;0.10;;;;;;;20.01;65.39;96069.69;4345174;32;20215;-62
2022/06/12 07:01:26;;;;;;;0.47;0.47;;;;;;;20.15;65.93;96064.78;4358259;32;20186;-62
2022/06/12 07:03:53;;;;;;;0.37;0.37;;;;;;;20.41;64.31;96056.38;4356743;32;20223;-62
2022/06/12 07:06:29;;;;;;;0.30;0.30;;;;;;;20.73;62.19;96064.69;4353066;32;20238;-62
2022/06/12 07:08:56;;;;;;;0.27;0.27;;;;;;;20.97;60.83;96061.94;4350283;32;20200;-62
2022/06/12 07:11:34;;;;;;;0.30;0.30;;;;;;;21.02;61.69;96064.38;4344691;32;20240;-62
2022/06/12 07:14:00;;;;;;;0.47;0.43;;;;;;;21.10;62.51;96065.38;4344775;32;20185;-62
2022/06/12 07:16:36;;;;;;;0.70;0.70;;;;;;;21.26;61.37;96058.16;4358402;32;20216;-62
2022/06/12 07:19:03;;;;;;;0.77;0.77;;;;;;;21.48;60.80;96059.53;4357694;32;20259;-62
2022/06/12 07:21:30;;;;;;;0.20;0.20;;;;;;;21.65;59.75;96066.50;4360156;32;20249;-62
2022/06/12 07:23:56;;;;;;;0.40;0.40;;;;;;;21.65;59.36;96067.31;4348103;32;20203;-62
2022/06/12 07:26:29;;;;;;;0.37;0.37;;;;;;;21.60;60.16;96062.19;4358756;32;20236;-62
2022/06/12 07:28:55;;;;;;;0.67;0.50;;;;;;;21.51;60.65;96069.63;4359203;32;20214;-62
2022/06/12 07:31:27;;;;;;;0.20;0.20;;;;;;;21.43;60.47;96057.06;4347842;32;20211;-62
2022/06/12 07:33:52;;;;;;;0.50;0.50;;;;;;;21.36;60.46;96062.28;4358912;32;20233;-62
2022/06/12 07:36:25;;;;;;;0.47;0.47;;;;;;;21.37;61.42;96063.84;4357970;32;20215;-62
2022/06/12 07:38:51;;;;;;;0.50;0.50;;;;;;;21.37;60.64;96061.16;4345049;32;20210;-62
2022/06/12 07:41:19;;;;;;;0.40;0.40;;;;;;;21.39;60.19;96057.00;4358404;32;20189;-62
2022/06/12 07:43:46;;;;;;;0.30;0.30;;;;;;;21.47;59.82;96064.12;4358093;32;20204;-62
2022/06/12 07:46:24;;;;;;;0.70;0.70;;;;;;;21.45;59.28;96060.19;4358105;32;20248;-63
2022/06/12 07:48:49;;;;;;;0.27;0.27;;;;;;;21.44;59.21;96055.94;4350863;32;20200;-62
2022/06/12 07:51:27;;;;;;;0.70;0.70;;;;;;;21.50;59.50;96051.84;4362349;32;20193;-62
2022/06/12 07:53:53;;;;;;;0.17;0.17;;;;;;;21.48;63.57;96057.59;4357495;32;20200;-62
2022/06/12 07:56:23;;;;;;;0.53;0.53;;;;;;;21.59;58.36;96055.19;4359914;32;20227;-62
2022/06/12 07:58:49;;;;;;;0.40;0.40;;;;;;;21.60;57.99;96051.38;4345836;32;20260;-62
2022/06/12 08:01:26;;;;;;;2.53;0.97;;;;;;;21.65;58.13;96053.81;4358924;32;20196;-62
2022/06/12 08:03:53;;;;;;;0.13;0.13;;;;;;;21.69;58.90;96051.19;4344484;32;20239;-62
2022/06/12 08:06:34;;;;;;;0.30;0.30;;;;;;;21.76;56.81;96048.69;4353469;32;20231;-62
2022/06/12 08:09:00;;;;;;;0.63;0.63;;;;;;;21.77;59.06;96051.03;4347374;32;20247;-62
2022/06/12 08:11:26;;;;;;;1.13;1.13;;;;;;;21.79;55.31;96058.81;4357825;32;20251;-62
2022/06/12 08:13:52;;;;;;;0.73;0.73;;;;;;;21.84;53.58;96053.13;4344787;32;20229;-62
2022/06/12 08:16:37;;;;;;;0.30;0.30;;;;;;;21.82;52.50;96050.00;4346116;32;20197;-62
2022/06/12 08:20:24;;;;;;;0.40;0.40;;;;;;;21.83;54.92;96055.03;4357172;32;20185;-62
2022/06/12 08:21:49;;;;;;;0.40;0.40;;;;;;;21.77;54.08;96056.44;4357534;32;20232;-62
2022/06/12 08:24:14;;;;;;;0.10;0.10;;;;;;;21.77;52.96;96056.44;4344467;32;20203;-62
2022/06/12 08:26:41;;;;;;;0.20;0.20;;;;;;;21.93;49.88;96051.84;4372192;32;20214;-62
2022/06/12 08:29:10;;;;;;;0.10;0.10;;;;;;;21.98;54.00;96048.09;4361900;32;20197;-62
2022/06/12 08:31:39;;;;;;;0.40;0.40;;;;;;;21.94;50.76;96044.53;4348267;32;20193;-62
2022/06/12 08:34:10;;;;;;;0.53;0.53;;;;;;;21.92;52.20;96052.97;4348030;32;20189;-62
2022/06/12 08:36:36;;;;;;;0.70;0.70;;;;;;;21.95;51.68;96052.28;4347785;32;20266;-62
2022/06/12 08:39:04;;;;;;;0.40;0.40;;;;;;;21.91;53.79;96056.81;4352276;32;20271;-62
2022/06/12 08:41:47;;;;;;;0.60;0.60;;;;;;;21.95;48.83;96051.50;4361218;32;20240;-62
2022/06/12 08:44:39;;;;;;;0.40;0.40;;;;;;;21.98;48.24;96050.00;4359428;32;20233;-62
2022/06/12 08:47:18;;;;;;;0.33;0.33;;;;;;;22.05;46.35;96044.78;4361502;32;20207;-62
2022/06/12 08:49:54;;;;;;;0.30;0.30;;;;;;;22.12;46.69;96044.97;4352906;32;20188;-63
2022/06/12 08:52:33;;;;;;;0.43;0.43;;;;;;;22.20;46.91;96042.12;4361698;32;20196;-62
2022/06/12 08:55:12;;;;;;;0.47;0.47;;;;;;;22.45;47.27;96039.97;4359922;32;20185;-62
2022/06/12 08:57:47;;;;;;;1.63;1.13;;;;;;;22.57;45.86;96045.28;4353669;32;20223;-62
2022/06/12 09:00:20;;;;;;;0.37;0.37;;;;;;;22.63;44.92;96043.09;4344842;32;20283;-62
2022/06/12 09:02:46;;;;;;;0.57;0.57;;;;;;;22.61;44.90;96040.75;4358056;32;20197;-62
2022/06/12 09:05:16;;;;;;;5.20;1.07;;;;;;;22.74;44.96;96032.50;4346248;32;20216;-62
2022/06/12 09:07:49;;;;;;;0.10;0.10;;;;;;;22.75;43.28;96039.47;4344317;32;20240;-62
2022/06/12 09:10:21;;;;;;;0.83;0.83;;;;;;;22.71;44.64;96033.97;4361451;32;20189;-62
2022/06/12 09:12:55;;;;;;;0.43;0.43;;;;;;;22.73;43.23;96031.72;4360935;32;20190;-62
2022/06/12 09:15:52;;;;;;;0.20;0.20;;;;;;;22.74;42.26;96030.56;4346515;32;20211;-62
2022/06/12 09:18:35;;;;;;;0.37;0.30;;;;;;;22.85;42.11;96033.56;4360566;32;20280;-62
2022/06/12 09:21:34;;;;;;;0.43;0.43;;;;;;;22.85;44.59;96023.53;4363744;32;20276;-62
2022/06/12 09:24:18;;;;;;;1.03;1.03;;;;;;;22.81;43.76;96021.87;4354012;32;20208;-62
2022/06/12 09:26:55;;;;;;;0.23;0.23;;;;;;;22.73;45.69;96023.59;4365034;32;20205;-62
2022/06/12 09:29:39;;;;;;;0.30;0.30;;;;;;;22.83;40.69;96025.00;4355139;32;20246;-62
2022/06/12 09:32:27;;;;;;;0.50;0.50;;;;;;;22.89;41.50;96018.16;4359648;32;20196;-62
2022/06/12 09:35:29;;;;;;;0.40;0.40;;;;;;;22.90;43.93;96020.50;4342376;32;20211;-62
2022/06/12 09:38:43;;;;;;;0.40;0.40;;;;;;;22.93;41.76;96021.72;4360592;32;20196;-62
2022/06/12 09:41:39;;;;;;;0.43;0.43;;;;;;;22.96;42.14;96012.91;4329326;32;20344;-62
2022/06/12 09:44:32;;;;;;;0.40;0.40;;;;;;;23.05;42.34;96008.06;4359871;32;20312;-62
2022/06/12 09:47:26;;;;;;;0.23;0.23;;;;;;;23.05;42.35;96007.28;4338526;32;20193;-62
2022/06/12 09:50:30;;;;;;;0.37;0.37;;;;;;;23.23;43.09;96003.00;4346518;32;20240;-63
2022/06/12 09:53:20;;;;;;;0.40;0.40;;;;;;;23.28;42.27;95999.97;4290088;33;20212;-62
2022/06/12 09:55:56;;;;;;;0.30;0.30;;;;;;;23.47;41.62;96010.81;4295518;33;20186;-62
2022/06/12 09:58:38;;;;;;;0.17;0.17;;;;;;;23.50;44.15;95998.44;4350719;32;20306;-62
2022/06/12 10:01:36;;;;;;;0.37;0.37;;;;;;;23.50;44.01;96001.16;4353154;32;20196;-62
2022/06/12 10:04:13;;;;;;;0.47;0.47;;;;;;;23.60;42.55;95993.28;4359298;32;20263;-62
2022/06/12 10:07:02;;;;;;;0.53;0.53;;;;;;;23.47;43.06;95993.78;4346245;32;20188;-62
2022/06/12 10:09:38;;;;;;;0.60;0.37;;;;;;;23.42;42.90;95997.56;4359822;32;20268;-62
2022/06/12 10:12:29;;;;;;;0.30;0.30;;;;;;;23.41;41.73;95987.09;4359854;32;20185;-62
2022/06/12 10:15:21;;;;;;;0.20;0.20;;;;;;;23.39;42.90;95986.66;4345425;32;20241;-62
2022/06/12 10:17:59;;;;;;;0.33;0.33;;;;;;;23.54;40.62;95972.25;4365555;32;20194;-62
2022/06/12 10:20:32;;;;;;;0.47;0.47;;;;;;;23.64;41.66;95967.03;4352466;32;20240;-62
2022/06/12 10:22:59;;;;;;;8.60;0.63;;;;;;;23.71;41.42;95966.34;4323906;32;20182;-62
2022/06/12 10:25:35;;;;;;;0.10;0.10;;;;;;;23.71;40.50;95966.34;4345738;32;20225;-62
2022/06/12 10:28:15;;;;;;;0.50;0.50;;;;;;;23.73;40.85;95963.28;4348490;32;20259;-62
2022/06/12 10:30:43;;;;;;;0.30;0.30;;;;;;;23.85;40.13;95961.19;4368904;32;20200;-62
2022/06/12 10:33:15;;;;;;;0.30;0.30;;;;;;;23.92;38.10;95957.78;4347107;32;20185;-62
2022/06/12 10:35:51;;;;;;;0.40;0.40;;;;;;;24.06;40.10;95951.81;4357123;32;20264;-64
2022/06/12 10:38:19;;;;;;;0.10;0.10;;;;;;;24.04;40.20;95956.81;4358737;32;20267;-62
2022/06/12 10:40:51;;;;;;;0.10;0.10;;;;;;;24.02;40.75;95964.53;4345090;32;20245;-62
2022/06/12 10:43:38;;;;;;;0.40;0.33;;;;;;;24.07;41.71;95954.16;4359593;32;20283;-62
2022/06/12 10:46:22;;;;;;;0.40;0.40;;;;;;;23.96;42.59;95955.91;4344704;32;20239;-62
2022/06/12 10:49:18;;;;;;;3.23;0.33;;;;;;;23.89;41.64;95953.09;4343996;32;20203;-62
2022/06/12 10:51:46;;;;;;;0.37;0.37;;;;;;;23.95;40.05;95944.28;4338862;32;20193;-62
2022/06/12 10:54:22;;;;;;;0.30;0.30;;;;;;;24.12;38.93;95947.63;4345088;32;20185;-63
2022/06/12 10:57:12;;;;;;;0.20;0.20;;;;;;;24.20;39.54;95943.88;4363503;32;20188;-62
2022/06/12 10:59:44;;;;;;;0.67;0.67;;;;;;;24.21;39.52;95950.88;4359091;32;20196;-62
2022/06/12 11:02:50;;;;;;;0.50;0.50;;;;;;;24.19;38.74;95948.53;4360013;32;20169;-62
2022/06/12 11:05:40;;;;;;;0.70;0.70;;;;;;;24.35;36.21;95934.03;4328622;32;20199;-62
2022/06/12 11:08:42;;;;;;;0.13;0.13;;;;;;;24.42;36.98;95936.84;4345017;32;20211;-62
2022/06/12 11:11:29;;;;;;;0.30;0.30;;;;;;;24.56;37.11;95929.69;4345538;32;20234;-62
2022/06/12 11:14:03;;;;;;;1.33;1.23;;;;;;;24.42;37.96;95926.78;4358568;32;20193;-62
2022/06/12 11:16:52;;;;;;;0.33;0.33;;;;;;;24.33;39.15;95920.84;4358277;32;20203;-62
2022/06/12 11:19:50;;;;;;;0.33;0.33;;;;;;;24.22;38.68;95914.47;4353501;32;20253;-62
2022/06/12 11:22:43;;;;;;;0.20;0.20;;;;;;;24.26;37.31;95920.75;4350847;32;20249;-62
2022/06/12 11:25:47;;;;;;;0.10;0.10;;;;;;;24.31;35.38;95901.47;4357566;32;20172;-62
2022/06/12 11:28:33;;;;;;;0.47;0.40;;;;;;;24.55;35.32;95908.34;4343187;32;20303;-63
2022/06/12 11:31:23;;;;;;;1.03;0.90;;;;;;;24.61;36.22;95904.94;4358754;32;20197;-62
2022/06/12 11:34:26;;;;;;;1.60;0.37;;;;;;;24.63;35.47;95901.88;4328158;32;20199;-62
2022/06/12 11:37:24;;;;;;;0.50;0.50;;;;;;;24.55;36.45;95894.78;4356673;32;20184;-62
2022/06/12 11:40:12;;;;;;;0.40;0.40;;;;;;;24.70;34.77;95890.31;4343346;32;20193;-62
2022/06/12 11:43:04;;;;;;;0.30;0.30;;;;;;;24.56;36.77;95891.69;4354021;32;20203;-62
2022/06/12 11:46:22;;;;;;;0.27;0.27;;;;;;;24.64;35.75;95887.16;4344630;32;20191;-62
2022/06/12 11:49:03;;;;;;;0.20;0.20;;;;;;;24.75;34.81;95876.41;4344166;32;20249;-62
2022/06/12 11:51:47;;;;;;;0.30;0.30;;;;;;;24.79;34.62;95874.50;4344450;32;20208;-62
2022/06/12 11:54:33;;;;;;;0.10;0.10;;;;;;;24.69;36.21;95872.47;4344474;32;20219;-63
2022/06/12 11:57:24;;;;;;;0.37;0.37;;;;;;;24.61;35.59;95877.81;4358763;32;20212;-62
2022/06/12 12:00:08;;;;;;;0.10;0.10;;;;;;;24.54;36.77;95866.06;4347611;32;20199;-62
2022/06/12 12:03:11;;;;;;;0.00;0.00;;;;;;;24.45;38.41;95860.94;4351682;32;20251;-62
2022/06/12 12:05:57;;;;;;;0.20;0.20;;;;;;;24.57;35.23;95857.97;4345034;32;20196;-62
2022/06/12 12:08:51;;;;;;;0.37;0.37;;;;;;;24.60;35.28;95859.97;4357866;32;20232;-62
2022/06/12 12:11:31;;;;;;;0.87;0.60;;;;;;;24.57;36.10;95859.91;4358311;32;20188;-62
2022/06/12 12:14:02;;;;;;;0.20;0.20;;;;;;;24.47;37.20;95858.66;4357041;32;20283;-62
2022/06/12 12:16:42;;;;;;;0.40;0.40;;;;;;;24.38;37.85;95855.44;4345271;32;20280;-62
2022/06/12 12:19:25;;;;;;;0.23;0.13;;;;;;;24.35;38.24;95844.53;4345241;32;20180;-62
2022/06/12 12:21:53;;;;;;;0.60;0.60;;;;;;;24.38;35.98;95847.28;4344196;32;20232;-62
2022/06/12 12:24:28;;;;;;;0.30;0.30;;;;;;;24.39;36.75;95843.44;4366655;32;20238;-62
2022/06/12 12:26:59;;;;;;;0.20;0.20;;;;;;;24.46;35.91;95838.09;4357935;32;20189;-62
2022/06/12 12:29:29;;;;;;;0.53;0.53;;;;;;;24.51;39.43;95829.63;4358115;32;20196;-62